createdAt,value
2017-04-29T00:00:11.996Z,101260
2017-04-29T00:02:41.216Z,101269
2017-04-29T00:05:10.206Z,101267
2017-04-29T00:07:39.253Z,101266
2017-04-29T00:10:08.231Z,101271
2017-04-29T00:12:37.197Z,101271
2017-04-29T00:18:18.876Z,101265
2017-04-29T00:20:48.820Z,101274
2017-04-29T00:23:17.883Z,101273
2017-04-29T00:25:47.188Z,101275
2017-04-29T00:28:16.165Z,101271
2017-04-29T00:30:45.915Z,101273
2017-04-29T00:33:14.911Z,101268
2017-04-29T00:35:43.914Z,101269
2017-04-29T00:38:12.912Z,101271
2017-04-29T00:40:41.932Z,101269
2017-04-29T00:43:11.955Z,101268
2017-04-29T00:45:41.689Z,101272
2017-04-29T00:48:10.681Z,101263
2017-04-29T00:50:40.821Z,101268
2017-04-29T00:53:09.832Z,101270
2017-04-29T00:55:38.837Z,101267
2017-04-29T00:58:07.839Z,101270
2017-04-29T01:00:36.836Z,101274
2017-04-29T01:03:05.826Z,101279
2017-04-29T01:05:35.159Z,101277
2017-04-29T01:08:04.114Z,101280
2017-04-29T01:10:33.071Z,101277
2017-04-29T01:13:03.188Z,101263
2017-04-29T01:15:32.159Z,101277
2017-04-29T01:18:02.118Z,101284
2017-04-29T01:20:31.108Z,101280
2017-04-29T01:23:00.462Z,101279
2017-04-29T01:25:29.446Z,101282
2017-04-29T01:27:58.481Z,101273
2017-04-29T01:30:27.479Z,101279
2017-04-29T01:32:56.470Z,101280
2017-04-29T01:35:25.840Z,101275
2017-04-29T01:37:55.858Z,101281
2017-04-29T01:40:24.910Z,101283
2017-04-29T01:42:54.644Z,101287
2017-04-29T01:45:23.632Z,101289
2017-04-29T01:47:52.650Z,101284
2017-04-29T01:50:21.639Z,101285
2017-04-29T01:52:50.948Z,101294
2017-04-29T01:55:19.972Z,101286
2017-04-29T01:57:49.049Z,101292
2017-04-29T02:00:18.032Z,101292
2017-04-29T02:02:47.058Z,101295
2017-04-29T02:05:16.070Z,101290
2017-04-29T02:07:45.860Z,101295
2017-04-29T02:10:15.284Z,101303
2017-04-29T02:12:44.264Z,101299
2017-04-29T02:15:13.987Z,101294
2017-04-29T02:17:43.703Z,101306
2017-04-29T02:20:13.466Z,101302
2017-04-29T02:22:42.437Z,101306
2017-04-29T02:25:11.456Z,101292
2017-04-29T02:27:40.836Z,101301
2017-04-29T02:30:09.849Z,101304
2017-04-29T02:32:38.799Z,101310
2017-04-29T02:35:07.772Z,101308
2017-04-29T02:37:37.549Z,101310
2017-04-29T02:40:06.549Z,101307
2017-04-29T02:42:35.529Z,101309
2017-04-29T04:45:25.107Z,101333
2017-04-29T04:47:56.709Z,101337
2017-04-29T04:50:26.918Z,101337
2017-04-29T04:52:57.818Z,101338
2017-04-29T04:55:27.291Z,101341
2017-04-29T04:57:56.268Z,101336
2017-04-29T05:00:25.212Z,101345
2017-04-29T05:02:54.902Z,101332
2017-04-29T05:05:23.887Z,101341
2017-04-29T05:07:52.855Z,101332
2017-04-29T05:10:21.798Z,101341
2017-04-29T05:12:51.801Z,101338
2017-04-29T05:15:20.753Z,101339
2017-04-29T05:17:49.687Z,101362
2017-04-29T05:20:19.392Z,101357
2017-04-29T05:22:49.105Z,101355
2017-04-29T05:25:18.047Z,101348
2017-04-29T05:27:46.991Z,101349
2017-04-29T05:30:17.006Z,101343
2017-04-29T05:32:46.697Z,101352
2017-04-29T05:35:15.657Z,101348
2017-04-29T05:37:44.618Z,101357
2017-04-29T05:40:13.576Z,101338
2017-04-29T05:42:42.543Z,101356
2017-04-29T05:45:11.523Z,101346
2017-04-29T05:47:40.969Z,101350
2017-04-29T05:50:10.683Z,101361
2017-04-29T05:52:40.434Z,101364
2017-04-29T05:55:09.398Z,101365
2017-04-29T05:57:38.333Z,101369
2017-04-29T06:00:07.806Z,101358
2017-04-29T06:02:36.771Z,101361
2017-04-29T06:05:06.478Z,101369
2017-04-29T06:07:36.169Z,101370
2017-04-29T06:10:05.187Z,101367
2017-04-29T06:12:34.164Z,101374
2017-04-29T06:15:03.859Z,101368
2017-04-29T06:17:33.196Z,101369
2017-04-29T06:20:02.134Z,101371
2017-04-29T06:22:31.097Z,101377
2017-04-29T06:25:00.074Z,101375
2017-04-29T06:27:29.016Z,101380
2017-04-29T06:29:57.981Z,101380
2017-04-29T06:32:26.930Z,101385
2017-04-29T06:34:56.219Z,101392
2017-04-29T06:37:25.922Z,101384
2017-04-29T06:39:54.880Z,101390
2017-04-29T06:42:23.823Z,101397
2017-04-29T06:44:52.780Z,101399
2017-04-29T06:47:21.732Z,101403
2017-04-29T06:49:50.681Z,101400
2017-04-29T06:52:20.006Z,101402
2017-04-29T06:54:49.008Z,101390
2017-04-29T06:57:17.954Z,101392
2017-04-29T06:59:46.894Z,101392
2017-04-29T07:02:15.856Z,101391
2017-04-29T07:04:45.679Z,101400
2017-04-29T07:07:14.622Z,101406
2017-04-29T07:09:44.047Z,101406
2017-04-29T07:12:13.010Z,101403
2017-04-29T07:14:41.964Z,101407
2017-04-29T07:17:10.925Z,101403
2017-04-29T07:19:40.624Z,101398
2017-04-29T07:22:09.596Z,101399
2017-04-29T07:24:38.575Z,101397
2017-04-29T07:27:07.838Z,101402
2017-04-29T07:29:36.780Z,101405
2017-04-29T07:32:05.768Z,101417
2017-04-29T07:34:34.707Z,101408
2017-04-29T07:37:04.407Z,101405
2017-04-29T07:39:33.375Z,101414
2017-04-29T07:42:02.315Z,101408
2017-04-29T07:44:31.600Z,101417
2017-04-29T07:47:01.335Z,101417
2017-04-29T07:49:30.306Z,101407
2017-04-29T07:51:59.278Z,101411
2017-04-29T07:54:28.238Z,101416
2017-04-29T07:56:57.232Z,101418
2017-04-29T07:59:26.195Z,101412
2017-04-29T08:01:56.367Z,101416
2017-04-29T08:04:26.078Z,101420
2017-04-29T08:06:55.023Z,101412
2017-04-29T08:09:24.043Z,101423
2017-04-29T08:11:53.123Z,101416
2017-04-29T08:14:22.093Z,101419
2017-04-29T08:16:51.048Z,101416
2017-04-29T08:19:19.985Z,101420
2017-04-29T08:21:48.942Z,101417
2017-04-29T08:24:18.337Z,101421
2017-04-29T08:26:47.288Z,101423
2017-04-29T08:29:16.248Z,101423
2017-04-29T08:31:45.212Z,101417
2017-04-29T08:34:14.204Z,101414
2017-04-29T08:36:43.164Z,101429
2017-04-29T08:39:12.913Z,101427
2017-04-29T08:41:42.144Z,101425
2017-04-29T08:44:11.128Z,101430
2017-04-29T08:46:40.121Z,101431
2017-04-29T08:49:09.337Z,101437
2017-04-29T08:51:38.321Z,101439
2017-04-29T08:54:07.377Z,101430
2017-04-29T08:56:36.304Z,101435
2017-04-29T08:59:05.551Z,101432
2017-04-29T09:01:35.261Z,101440
2017-04-29T09:04:04.271Z,101442
2017-04-29T09:06:33.268Z,101441
2017-04-29T09:09:02.223Z,101438
2017-04-29T09:11:31.936Z,101445
2017-04-29T09:14:01.668Z,101445
2017-04-29T09:16:30.667Z,101444
2017-04-29T09:18:59.796Z,101439
2017-04-29T09:21:29.127Z,101441
2017-04-29T09:23:58.833Z,101434
2017-04-29T09:26:27.800Z,101444
2017-04-29T09:28:56.761Z,101445
2017-04-29T09:31:25.748Z,101450
2017-04-29T09:33:54.715Z,101453
2017-04-29T09:36:24.406Z,101451
2017-04-29T09:38:54.462Z,101448
2017-04-29T09:41:23.437Z,101451
2017-04-29T09:43:52.407Z,101451
2017-04-29T09:46:22.104Z,101454
2017-04-29T09:48:51.059Z,101448
2017-04-29T09:51:20.020Z,101466
2017-04-29T09:53:48.232Z,101458
2017-04-29T09:56:17.596Z,101461
2017-04-29T09:58:46.563Z,101463
2017-04-29T10:01:15.539Z,101455
2017-04-29T10:03:44.527Z,101457
2017-04-29T10:06:13.509Z,101455
2017-04-29T10:08:42.476Z,101456
2017-04-29T10:11:11.484Z,101445
2017-04-29T10:13:40.847Z,101447
2017-04-29T10:16:09.852Z,101448
2017-04-29T10:18:38.803Z,101452
2017-04-29T10:21:07.755Z,101451
2017-04-29T10:23:36.731Z,101458
2017-04-29T10:26:05.851Z,101443
2017-04-29T10:28:34.823Z,101448
2017-04-29T10:31:04.075Z,101454
2017-04-29T10:33:33.026Z,101449
2017-04-29T10:36:02.017Z,101451
2017-04-29T10:38:30.967Z,101445
2017-04-29T10:40:59.948Z,101445
2017-04-29T10:43:29.675Z,101439
2017-04-29T10:45:58.701Z,101452
2017-04-29T10:48:28.054Z,101441
2017-04-29T10:50:57.744Z,101436
2017-04-29T10:53:26.685Z,101436
2017-04-29T10:55:55.668Z,101441
2017-04-29T10:58:24.640Z,101445
2017-04-29T11:00:53.632Z,101448
2017-04-29T11:03:23.543Z,101453
2017-04-29T11:05:53.566Z,101454
2017-04-29T11:08:23.325Z,101463
2017-04-29T11:10:52.326Z,101469
2017-04-29T11:13:21.306Z,101467
2017-04-29T11:15:50.283Z,101472
2017-04-29T11:18:19.705Z,101468
2017-04-29T11:20:48.986Z,101474
2017-04-29T11:23:17.984Z,101473
2017-04-29T11:25:46.952Z,101471
2017-04-29T11:28:15.972Z,101476
2017-04-29T11:30:44.990Z,101470
2017-04-29T11:33:14.003Z,101481
2017-04-29T11:35:44.023Z,101478
2017-04-29T11:38:13.777Z,101476
2017-04-29T11:40:42.756Z,101474
2017-04-29T11:43:11.727Z,101476
2017-04-29T11:45:40.749Z,101471
2017-04-29T11:48:09.739Z,101470
2017-04-29T11:50:38.738Z,101473
2017-04-29T11:53:34.854Z,101476
2017-04-29T11:56:04.686Z,101481
2017-04-29T11:58:34.266Z,101483
2017-04-29T12:01:03.438Z,101485
2017-04-29T12:03:32.466Z,101490
2017-04-29T12:06:01.569Z,101498
2017-04-29T12:08:30.616Z,101493
2017-04-29T12:10:59.652Z,101489
2017-04-29T12:13:28.668Z,101498
2017-04-29T12:15:57.957Z,101508
2017-04-29T12:18:26.985Z,101510
2017-04-29T12:20:56.792Z,101521
2017-04-29T12:23:25.827Z,101526
2017-04-29T12:25:54.951Z,101531
2017-04-29T12:28:23.987Z,101535
2017-04-29T12:30:53.691Z,101533
2017-04-29T12:33:23.818Z,101541
2017-04-29T12:35:53.624Z,101550
2017-04-29T12:38:23.469Z,101546
2017-04-29T12:40:52.459Z,101550
2017-04-29T12:43:21.456Z,101570
2017-04-29T12:45:50.478Z,101573
2017-04-29T12:48:19.526Z,101567
2017-04-29T12:50:48.925Z,101572
2017-04-29T12:53:17.988Z,101573
2017-04-29T12:55:47.827Z,101581
2017-04-29T12:58:16.844Z,101579
2017-04-29T13:00:45.857Z,101585
2017-04-29T13:03:14.870Z,101580
2017-04-29T13:05:43.896Z,101577
2017-04-29T13:08:13.189Z,101584
2017-04-29T13:10:42.164Z,101582
2017-04-29T13:13:11.911Z,101586
2017-04-29T13:15:40.875Z,101575
2017-04-29T13:18:10.616Z,101589
2017-04-29T13:20:39.629Z,101588
2017-04-29T13:23:08.621Z,101588
2017-04-29T13:25:37.930Z,101591
2017-04-29T13:28:06.921Z,101593
2017-04-29T13:30:35.886Z,101583
2017-04-29T13:33:04.881Z,101587
2017-04-29T13:35:37.644Z,101580
2017-04-29T13:38:06.640Z,101580
2017-04-29T13:40:35.646Z,101579
2017-04-29T13:43:04.888Z,101576
2017-04-29T13:45:33.895Z,101577
2017-04-29T13:48:03.635Z,101561
2017-04-29T13:50:32.647Z,101573
2017-04-29T13:53:01.678Z,101580
2017-04-29T13:55:30.718Z,101579
2017-04-29T13:57:59.759Z,101584
2017-04-29T14:00:29.071Z,101576
2017-04-29T14:02:58.846Z,101580
2017-04-29T14:05:27.851Z,101576
2017-04-29T14:07:56.847Z,101577
2017-04-29T14:10:25.861Z,101573
2017-04-29T14:12:54.871Z,101570
2017-04-29T14:15:23.911Z,101583
2017-04-29T14:17:53.267Z,101576
2017-04-29T14:20:22.246Z,101576
2017-04-29T14:22:51.336Z,101575
2017-04-29T14:25:20.556Z,101580
2017-04-29T14:27:49.582Z,101577
2017-04-29T14:30:18.564Z,101585
2017-04-29T14:32:48.091Z,101590
2017-04-29T14:35:17.540Z,101597
2017-04-29T14:37:46.522Z,101606
2017-04-29T14:40:16.256Z,101606
2017-04-29T14:42:45.240Z,101605
2017-04-29T14:45:14.269Z,101617
2017-04-29T14:47:43.398Z,101603
2017-04-29T14:50:13.263Z,101609
2017-04-29T14:52:42.561Z,101617
2017-04-29T14:55:11.648Z,101607
2017-04-29T14:57:40.683Z,101604
2017-04-29T15:00:09.659Z,101603
2017-04-29T15:02:38.645Z,101613
2017-04-29T15:05:11.966Z,101603
2017-04-29T15:07:41.294Z,101609
2017-04-29T15:12:56.681Z,101602
2017-04-29T15:22:04.873Z,101626
2017-04-29T15:24:36.932Z,101617
2017-04-29T15:33:10.542Z,101625
2017-04-29T15:36:05.189Z,101620
2017-04-29T15:38:35.443Z,101621
2017-04-29T15:44:13.100Z,101633
2017-04-29T15:46:42.219Z,101633
2017-04-29T15:51:53.602Z,101631
2017-04-29T15:54:29.626Z,101635
2017-04-29T15:57:03.930Z,101629
2017-04-29T16:00:00.097Z,101641
2017-04-29T16:02:34.425Z,101652
2017-04-29T16:09:03.160Z,101639
2017-04-29T16:12:11.781Z,101647
2017-04-29T16:20:59.199Z,101642
2017-04-29T16:29:32.988Z,101637
2017-04-29T16:32:11.149Z,101632
2017-04-29T16:34:44.753Z,101644
2017-04-29T16:40:16.925Z,101638
2017-04-29T16:42:49.838Z,101639
2017-04-29T16:54:30.667Z,101645
2017-04-29T17:00:51.354Z,101648
2017-04-29T17:03:25.532Z,101637
2017-04-29T17:12:34.030Z,101650
2017-04-29T17:24:39.150Z,101654
2017-04-29T17:50:25.871Z,101667
2017-04-29T17:56:31.391Z,101675
2017-04-29T18:02:20.043Z,101673
2017-04-29T18:08:04.764Z,101683
2017-04-29T18:10:34.804Z,101691
2017-04-29T18:13:32.148Z,101699
2017-04-29T18:16:18.013Z,101689
2017-04-29T18:35:31.308Z,101709
2017-04-29T18:38:02.111Z,101715
2017-04-29T18:40:39.710Z,101708
2017-04-29T18:43:14.043Z,101706
2017-04-29T18:58:38.202Z,101738
2017-04-29T19:01:08.321Z,101741
2017-04-29T19:03:37.644Z,101740
2017-04-29T19:06:07.177Z,101740
2017-04-29T19:08:36.278Z,101742
2017-04-29T19:11:05.319Z,101740
2017-04-29T19:13:34.447Z,101749
2017-04-29T19:16:03.620Z,101749
2017-04-29T19:18:32.675Z,101743
2017-04-29T19:21:01.751Z,101742
2017-04-29T19:23:31.288Z,101740
2017-04-29T19:26:00.331Z,101742
2017-04-29T19:28:29.447Z,101735
2017-04-29T19:30:58.516Z,101745
2017-04-29T19:33:28.331Z,101740
2017-04-29T19:36:00.255Z,101754
2017-04-29T19:38:29.392Z,101749
2017-04-29T19:40:59.110Z,101753
2017-04-29T19:43:28.584Z,101751
2017-04-29T19:45:59.774Z,101761
2017-04-29T19:48:31.010Z,101757
2017-04-29T19:51:05.372Z,101758
2017-04-29T19:53:34.696Z,101761
2017-04-29T19:56:03.759Z,101764
2017-04-29T19:58:32.811Z,101762
2017-04-29T20:01:01.978Z,101772
2017-04-29T20:03:31.107Z,101767
2017-04-29T20:06:00.143Z,101767
2017-04-29T20:08:29.534Z,101780
2017-04-29T20:10:58.584Z,101772
2017-04-29T20:13:27.661Z,101774
2017-04-29T20:15:57.495Z,101781
2017-04-29T20:18:26.485Z,101784
2017-04-29T20:20:55.593Z,101776
2017-04-29T20:23:24.634Z,101792
2017-04-29T20:25:53.718Z,101783
2017-04-29T20:28:22.726Z,101777
2017-04-29T20:30:52.231Z,101776
2017-04-29T20:33:21.244Z,101784
2017-04-29T20:35:50.297Z,101783
2017-04-29T20:38:19.328Z,101770
2017-04-29T20:40:48.442Z,101776
2017-04-29T20:43:17.764Z,101778
2017-04-29T20:45:46.795Z,101780
2017-04-29T20:48:15.847Z,101780
2017-04-29T20:50:44.887Z,101776
2017-04-29T20:53:13.953Z,101799
2017-04-29T20:55:42.956Z,101788
2017-04-29T20:58:11.940Z,101792
2017-04-29T21:00:41.278Z,101795
2017-04-29T21:03:11.048Z,101799
2017-04-29T21:05:40.636Z,101801
2017-04-29T21:08:09.654Z,101800
2017-04-29T21:10:38.679Z,101801
2017-04-29T21:13:08.413Z,101803
2017-04-29T21:15:41.175Z,101809
2017-04-29T21:18:10.985Z,101804
2017-04-29T21:20:40.051Z,101791
2017-04-29T21:23:09.112Z,101808
2017-04-29T21:25:38.126Z,101809
2017-04-29T21:28:07.171Z,101804
2017-04-29T21:30:36.148Z,101806
2017-04-29T21:33:05.899Z,101814
2017-04-29T21:35:34.940Z,101810
2017-04-29T21:38:03.933Z,101811
2017-04-29T21:40:33.976Z,101816
2017-04-29T21:43:02.966Z,101816
2017-04-29T21:45:31.948Z,101819
2017-04-29T21:48:00.934Z,101817
2017-04-29T21:50:30.682Z,101815
2017-04-29T21:52:59.698Z,101818
2017-04-29T21:55:28.701Z,101813
2017-04-29T21:57:57.950Z,101818
2017-04-29T22:00:27.018Z,101818
2017-04-29T22:02:56.839Z,101823
2017-04-29T22:05:25.864Z,101812
2017-04-29T22:07:54.894Z,101820
2017-04-29T22:10:23.904Z,101820
2017-04-29T22:12:53.692Z,101816
2017-04-29T22:15:22.693Z,101821
2017-04-29T22:17:51.802Z,101819
2017-04-29T22:20:21.836Z,101817
2017-04-29T22:22:50.878Z,101820
2017-04-29T22:25:19.838Z,101818
2017-04-29T22:27:48.814Z,101817
2017-04-29T22:30:17.887Z,101829
2017-04-29T22:32:47.670Z,101819
2017-04-29T22:35:16.686Z,101822
2017-04-29T22:37:46.748Z,101817
2017-04-29T22:40:15.751Z,101826
2017-04-29T22:42:44.737Z,101823
2017-04-29T22:45:13.733Z,101821
2017-04-29T22:47:42.860Z,101818
2017-04-29T22:50:11.844Z,101822
2017-04-29T22:52:40.835Z,101810
2017-04-29T22:55:10.197Z,101812
2017-04-29T22:57:39.178Z,101813
2017-04-29T23:00:08.180Z,101808
2017-04-29T23:02:37.152Z,101807
2017-04-29T23:05:06.889Z,101810
2017-04-29T23:07:35.985Z,101807
2017-04-29T23:10:04.972Z,101803
2017-04-29T23:12:34.245Z,101807
2017-04-29T23:15:03.966Z,101814
2017-04-29T23:17:32.936Z,101813
2017-04-29T23:20:02.670Z,101805
2017-04-29T23:22:31.660Z,101815
2017-04-29T23:25:00.659Z,101810
2017-04-29T23:27:29.676Z,101811
2017-04-29T23:29:58.934Z,101815
2017-04-29T23:32:28.051Z,101814
2017-04-29T23:34:57.097Z,101807
2017-04-29T23:37:27.221Z,101821
2017-04-29T23:39:56.344Z,101819
2017-04-29T23:42:25.347Z,101818
2017-04-29T23:44:54.347Z,101819
2017-04-29T23:47:23.682Z,101828
2017-04-29T23:49:52.673Z,101822
2017-04-29T23:52:21.687Z,101830
2017-04-29T23:54:50.684Z,101829
2017-04-29T23:57:20.423Z,101841
2017-04-29T23:59:49.472Z,101827
